San Diego, California
Traffic Map
Current Weather Conditions
San Diego, California
Clear
Clear
14°
Feels Like: 14°
Wind Chill: 14° Ceiling: Unl
Heat Index: 14° Visibility: 10mi
Dew Point: -5° Wind: 3mph
Humidity: 26% Direction: 330° (NNW)
Pressure: 30.19in Gusts: 0mph
Raw Report DataKSAN 120651Z 33003KT 10SM CLR 14/M05 A3019 RMK AO2 SLP224 T01441050
Traffic Incident Summary
Active as of:
Severity:
Category:
InformationThere was an issue retrieving the traffic information for this location. Please try a different location or try again shortly.
Advertisements